Time;durP1;ratioP1;P1;durP2;ratioP2;P2;SDS_P1;SDS_P2;PMS_P1;PMS_P2;Temp;Humidity;BMP_temperature;BMP_pressure;BME280_temperature;BME280_humidity;BME280_pressure;Samples;Min_cycle;Max_cycle;Signal;HPM_P1;HPM_P2
2022/12/12 00:01:25;;;;;;;;;29.25;25.50;;;;;3.13;60.92;100584.19;5010989;28;46458;-73
2022/12/12 00:03:51;;;;;;;;;40.00;29.50;;;;;3.11;60.78;100584.19;5003961;28;45688;-72
2022/12/12 00:06:17;;;;;;;;;34.00;30.00;;;;;3.07;60.83;100579.78;5009235;28;45495;-72
2022/12/12 00:08:42;;;;;;;;;33.00;23.50;;;;;3.10;60.90;100585.06;5004114;28;45488;-73
2022/12/12 00:11:08;;;;;;;;;35.25;25.25;;;;;3.09;61.54;100585.97;4999113;28;45397;-72
2022/12/12 00:13:34;;;;;;;;;27.75;19.25;;;;;3.08;60.66;100580.69;5010134;28;45334;-72
2022/12/12 00:16:00;;;;;;;;;37.75;29.25;;;;;3.11;60.94;100593.88;5010636;28;45385;-72
2022/12/12 00:18:25;;;;;;;;;22.25;19.50;;;;;3.14;61.03;100588.56;4998635;28;45428;-73
2022/12/12 00:20:55;;;;;;;;;27.50;23.50;;;;;3.12;61.15;100587.69;5002290;28;46940;-73
2022/12/12 00:23:21;;;;;;;;;30.75;28.50;;;;;3.17;61.13;100583.25;5011520;28;45792;-73
2022/12/12 00:26:03;;;;;;;;;32.00;23.50;;;;;3.15;61.51;100582.41;5009795;28;45688;-73
2022/12/12 00:28:28;;;;;;;;;30.00;25.00;;;;;3.19;60.80;100586.81;5013926;28;45497;-72
2022/12/12 00:30:54;;;;;;;;;22.00;19.00;;;;;3.18;60.56;100586.81;5006261;28;45312;-73
2022/12/12 00:33:19;;;;;;;;;32.00;22.75;;;;;3.14;60.76;100583.28;5004096;28;45579;-73
2022/12/12 00:35:49;;;;;;;;;23.50;19.50;;;;;3.17;61.05;100583.25;5006296;28;45274;-73
2022/12/12 00:38:14;;;;;;;;;18.00;15.75;;;;;3.20;61.38;100590.31;5010196;28;45408;-73
2022/12/12 00:40:39;;;;;;;;;26.00;20.00;;;;;3.19;60.83;100594.72;5005420;28;47024;-73
2022/12/12 00:43:05;;;;;;;;;24.25;21.00;;;;;3.26;61.13;100595.56;5011797;28;45381;-73
2022/12/12 00:45:30;;;;;;;;;32.50;25.25;;;;;3.25;61.19;100604.34;4998794;28;45432;-73
2022/12/12 00:47:55;;;;;;;;;25.25;22.00;;;;;3.24;60.53;100600.84;5007386;28;45489;-73
2022/12/12 00:50:21;;;;;;;;;16.75;12.00;;;;;3.22;61.12;100596.44;4998345;28;45548;-73
2022/12/12 00:52:46;;;;;;;;;26.75;20.50;;;;;3.28;60.67;100602.56;5003723;28;45310;-73
2022/12/12 00:55:11;;;;;;;;;29.50;25.25;;;;;3.27;60.95;100603.44;5018566;28;45318;-73
2022/12/12 00:57:37;;;;;;;;;24.25;19.00;;;;;3.24;61.14;100595.56;5001497;28;45296;-73
2022/12/12 01:00:08;;;;;;;;;24.75;20.50;;;;;3.27;61.17;100606.06;4998166;28;45439;-73
2022/12/12 01:02:33;;;;;;;;;18.75;14.25;;;;;3.22;61.10;100594.66;5010662;28;45941;-73
2022/12/12 01:04:58;;;;;;;;;30.25;22.50;;;;;3.21;61.07;100598.22;5003660;28;45860;-73
2022/12/12 01:07:24;;;;;;;;;24.00;21.33;;;;;3.19;60.92;100599.09;5013644;28;45483;-73
2022/12/12 01:09:49;;;;;;;;;24.75;21.25;;;;;3.25;61.31;100607.00;4998993;28;45361;-73
2022/12/12 01:12:14;;;;;;;;;26.50;25.25;;;;;3.28;61.29;100602.56;5002553;28;45472;-73
2022/12/12 01:14:40;;;;;;;;;25.50;20.00;;;;;3.27;61.16;100592.88;5020690;28;45380;-73
2022/12/12 01:17:05;;;;;;;;;31.75;23.25;;;;;3.24;61.18;100598.22;5007800;28;45310;-73
2022/12/12 01:19:30;;;;;;;;;14.50;11.75;;;;;3.23;60.66;100593.81;5010237;28;46577;-73
2022/12/12 01:21:56;;;;;;;;;17.25;16.50;;;;;3.22;60.92;100599.09;5013871;28;45459;-73
2022/12/12 01:24:21;;;;;;;;;26.50;21.75;;;;;3.18;61.11;100595.59;5015022;28;45534;-73
2022/12/12 01:26:46;;;;;;;;;25.00;22.00;;;;;3.15;61.09;100593.81;5016727;28;45310;-73
2022/12/12 01:29:12;;;;;;;;;26.25;19.00;;;;;3.12;60.96;100596.50;5001286;28;46077;-73
2022/12/12 01:31:37;;;;;;;;;25.75;19.00;;;;;3.18;60.82;100602.63;5003713;28;45447;-73
2022/12/12 01:34:03;;;;;;;;;18.75;18.00;;;;;3.18;61.18;100597.34;5001376;28;45544;-73
2022/12/12 01:36:28;;;;;;;;;29.75;22.75;;;;;3.23;61.17;100608.75;5015365;28;45583;-73
2022/12/12 01:38:55;;;;;;;;;28.25;23.25;;;;;3.25;60.80;100601.72;5018204;28;46119;-73
2022/12/12 01:41:21;;;;;;;;;19.25;13.50;;;;;3.15;61.68;100608.78;5002851;28;45822;-72
2022/12/12 01:43:47;;;;;;;;;27.00;19.00;;;;;3.17;61.03;100611.41;5001464;28;45414;-73
2022/12/12 01:46:32;;;;;;;;;27.75;22.75;;;;;3.20;60.92;100612.28;5000931;28;45350;-72
2022/12/12 01:49:10;;;;;;;;;25.50;20.50;;;;;3.20;61.62;100609.63;5000788;28;46323;-73
2022/12/12 01:51:36;;;;;;;;;25.25;19.75;;;;;3.24;60.83;100607.84;5006251;28;46096;-73
2022/12/12 01:54:07;;;;;;;;;29.50;24.00;;;;;3.26;60.54;100614.91;5005806;28;45605;-73
2022/12/12 01:56:34;;;;;;;;;26.25;22.50;;;;;3.25;61.12;100610.50;5013032;28;45381;-73
2022/12/12 01:59:02;;;;;;;;;32.75;24.25;;;;;3.25;61.30;100605.22;5014065;28;45375;-73
2022/12/12 02:01:28;;;;;;;;;29.25;22.50;;;;;3.28;60.29;100614.91;5008795;28;45536;-73
2022/12/12 02:03:54;;;;;;;;;21.25;17.50;;;;;3.23;60.61;100612.25;5005609;28;45401;-73
2022/12/12 02:06:25;;;;;;;;;20.75;18.25;;;;;3.14;60.17;100601.75;5018594;28;45496;-73
2022/12/12 02:08:55;;;;;;;;;22.00;20.00;;;;;3.20;60.70;100617.56;5004267;28;47060;-73
2022/12/12 02:11:21;;;;;;;;;33.00;22.00;;;;;3.19;60.69;100615.81;5000790;28;45719;-73
2022/12/12 02:13:47;;;;;;;;;22.50;21.25;;;;;3.21;60.87;100616.69;5011926;28;45831;-73
2022/12/12 02:16:27;;;;;;;;;18.75;15.00;;;;;3.21;60.52;100619.31;5020505;28;45326;-73
2022/12/12 02:19:07;;;;;;;;;27.75;21.25;;;;;3.20;60.34;100612.28;5000365;28;45476;-73
2022/12/12 02:21:40;;;;;;;;;23.50;21.00;;;;;3.18;60.28;100600.84;5013829;28;45450;-73
2022/12/12 02:24:17;;;;;;;;;18.50;13.00;;;;;3.20;60.20;100607.00;5013760;28;45330;-73
2022/12/12 02:27:06;;;;;;;;;20.00;17.00;;;;;3.17;60.66;100603.50;5003608;28;45397;-73
2022/12/12 02:29:49;;;;;;;;;31.75;18.75;;;;;3.17;60.49;100607.00;5000250;28;45585;-73
2022/12/12 02:32:23;;;;;;;;;16.75;15.75;;;;;3.21;60.26;100610.50;5010631;28;45970;-73
2022/12/12 02:35:16;;;;;;;;;24.25;19.75;;;;;3.22;60.28;100609.63;4993993;28;45441;-73
2022/12/12 02:38:00;;;;;;;;;25.75;19.50;;;;;3.20;60.55;100614.91;5007279;28;45645;-73
2022/12/12 02:41:03;;;;;;;;;19.00;15.50;;;;;3.19;60.53;100604.38;5017656;28;45456;-73
2022/12/12 02:43:35;;;;;;;;;25.50;18.25;;;;;3.21;60.49;100614.03;4993144;28;45728;-73
2022/12/12 02:46:10;;;;;;;;;26.75;18.50;;;;;3.19;60.56;100620.19;5003818;28;45518;-73
2022/12/12 02:48:44;;;;;;;;;22.50;18.00;;;;;3.17;60.38;100612.28;5001135;28;45387;-73
2022/12/12 02:51:13;;;;;;;;;26.00;19.00;;;;;3.21;60.62;100614.03;5004716;28;45408;-73
2022/12/12 02:53:38;;;;;;;;;18.00;18.00;;;;;3.16;60.28;100602.63;5010842;28;45914;-73
2022/12/12 02:57:02;;;;;;;;;12.75;10.50;;;;;3.09;60.42;100622.88;5016243;28;45236;-73
2022/12/12 02:59:35;;;;;;;;;26.75;23.25;;;;;3.10;60.78;100610.56;4953721;28;45792;-73
2022/12/12 03:02:35;;;;;;;;;17.75;17.00;;;;;3.14;60.82;100607.00;4972806;28;46105;-73
2022/12/12 03:08:09;;;;;;;;;25.25;20.75;;;;;3.17;60.75;100608.78;5014804;28;45469;-72
2022/12/12 03:10:56;;;;;;;;;19.00;15.00;;;;;3.20;60.54;100607.00;5002794;28;45413;-72
2022/12/12 03:13:31;;;;;;;;;23.75;18.50;;;;;3.23;61.17;100603.47;5012335;28;45988;-72
2022/12/12 03:16:28;;;;;;;;;19.25;16.25;;;;;3.23;60.70;100598.22;4999894;28;45313;-73
2022/12/12 03:19:18;;;;;;;;;28.25;20.25;;;;;3.23;60.57;100593.81;4999637;28;45345;-73
2022/12/12 03:21:43;;;;;;;;;31.25;16.75;;;;;3.26;61.32;100598.19;5014427;28;45408;-73
2022/12/12 03:24:19;;;;;;;;;21.33;16.67;;;;;3.25;60.91;100591.16;5008250;28;45574;-73
2022/12/12 03:26:53;;;;;;;;;20.00;17.75;;;;;3.29;60.44;100593.78;5004946;28;45735;-73
2022/12/12 03:29:25;;;;;;;;;23.25;16.75;;;;;3.26;60.84;100587.66;5008269;28;45558;-73
2022/12/12 03:31:57;;;;;;;;;20.50;17.50;;;;;3.29;61.17;100593.78;5004614;28;45597;-73
2022/12/12 03:34:33;;;;;;;;;21.50;18.00;;;;;3.32;60.92;100596.41;5006274;28;45395;-73
2022/12/12 03:37:12;;;;;;;;;18.00;17.00;;;;;3.28;60.36;100592.00;5000849;28;45322;-73
2022/12/12 03:39:43;;;;;;;;;27.25;24.25;;;;;3.24;60.21;100592.03;5016356;28;45328;-73
2022/12/12 03:42:23;;;;;;;;;22.00;15.25;;;;;3.18;61.16;100585.03;4999619;28;45475;-73
2022/12/12 03:45:00;;;;;;;;;22.75;18.75;;;;;3.22;60.95;100588.53;5008978;28;45501;-73
2022/12/12 03:47:33;;;;;;;;;21.50;19.00;;;;;3.24;61.21;100592.94;5005542;28;45512;-73
2022/12/12 03:50:10;;;;;;;;;20.50;19.50;;;;;3.30;60.70;100608.72;5011036;28;45487;-73
2022/12/12 03:52:52;;;;;;;;;22.25;19.00;;;;;3.31;60.96;100599.06;5006843;28;45401;-73
2022/12/12 03:55:26;;;;;;;;;22.75;21.00;;;;;3.33;60.89;100606.06;5012390;28;45735;-73
2022/12/12 03:57:56;;;;;;;;;22.25;22.25;;;;;3.40;61.10;100609.53;5009323;28;45884;-73
2022/12/12 04:00:21;;;;;;;;;24.25;21.25;;;;;3.35;60.72;100613.97;5006590;28;45424;-73
2022/12/12 04:02:57;;;;;;;;;22.00;18.25;;;;;3.40;61.00;100609.53;4999028;28;45278;-73
2022/12/12 04:05:32;;;;;;;;;16.75;15.25;;;;;3.42;60.64;100618.31;5015607;28;45467;-73
2022/12/12 04:08:08;;;;;;;;;26.00;19.50;;;;;3.43;60.94;100620.09;5008334;28;45329;-73
2022/12/12 04:13:47;;;;;;;;;33.50;19.50;;;;;3.46;60.59;100621.84;5015325;28;45487;-73
2022/12/12 04:16:19;;;;;;;;;24.50;22.50;;;;;3.43;60.76;100620.09;5007046;28;45483;-73
2022/12/12 04:18:53;;;;;;;;;23.75;19.50;;;;;3.45;61.24;100623.59;4998682;28;45368;-73
2022/12/12 04:24:26;;;;;;;;;21.50;19.00;;;;;3.48;60.47;100628.00;5010596;28;45515;-73
2022/12/12 04:27:06;;;;;;;;;29.00;22.75;;;;;3.45;60.63;100628.00;5003336;28;46280;-73
2022/12/12 04:30:09;;;;;;;;;22.00;18.25;;;;;3.47;61.25;100631.50;5004863;28;45449;-73
2022/12/12 04:32:42;;;;;;;;;21.25;20.50;;;;;3.44;60.58;100634.16;4994082;28;45511;-73
2022/12/12 04:35:12;;;;;;;;;24.00;18.50;;;;;3.39;60.73;100636.84;5012169;28;45309;-73
2022/12/12 04:37:48;;;;;;;;;22.50;22.00;;;;;3.36;60.70;100628.94;5011291;28;45544;-73
2022/12/12 04:40:21;;;;;;;;;22.25;18.75;;;;;3.41;60.81;100629.78;5010178;28;45389;-73
2022/12/12 04:42:55;;;;;;;;;25.50;19.25;;;;;3.40;61.33;100627.16;4998754;28;45428;-73
2022/12/12 04:45:29;;;;;;;;;22.50;18.50;;;;;3.39;60.58;100639.47;4999775;28;45342;-72
2022/12/12 04:47:55;;;;;;;;;21.50;19.00;;;;;3.42;61.00;100644.72;5014857;28;45551;-73
2022/12/12 04:50:24;;;;;;;;;25.75;23.50;;;;;3.40;60.83;100643.84;5004784;28;45445;-73
2022/12/12 04:52:52;;;;;;;;;20.25;15.50;;;;;3.38;60.66;100634.19;5004731;28;45452;-73
2022/12/12 04:55:25;;;;;;;;;26.50;18.25;;;;;3.43;60.71;100635.06;5010513;28;46859;-73
2022/12/12 04:57:53;;;;;;;;;23.00;19.00;;;;;3.44;61.25;100634.16;5001794;28;45350;-73
2022/12/12 05:00:21;;;;;;;;;22.25;19.75;;;;;3.46;60.79;100635.91;5013779;28;45718;-73
2022/12/12 05:03:18;;;;;;;;;28.75;22.00;;;;;3.43;60.87;100641.19;5002328;28;45491;-74
2022/12/12 05:05:50;;;;;;;;;25.75;20.00;;;;;3.45;60.72;100639.41;5014866;28;45660;-73
2022/12/12 05:08:30;;;;;;;;;22.25;21.50;;;;;3.47;60.72;100631.50;4994651;28;48213;-74
2022/12/12 05:11:00;;;;;;;;;24.25;21.75;;;;;3.48;60.73;100638.53;5014891;28;45805;-73
2022/12/12 05:13:31;;;;;;;;;20.00;16.25;;;;;3.51;60.75;100638.53;5012351;28;45519;-73
2022/12/12 05:15:59;;;;;;;;;22.75;19.75;;;;;3.49;60.81;100638.53;5013529;28;45537;-73
2022/12/12 05:18:24;;;;;;;;;25.00;22.50;;;;;3.48;60.68;100642.06;5001388;28;46779;-73
2022/12/12 05:20:50;;;;;;;;;23.75;19.50;;;;;3.45;60.36;100643.84;5009800;28;45337;-74
2022/12/12 05:23:15;;;;;;;;;23.50;20.25;;;;;3.46;60.96;100648.25;5009748;28;45306;-74
2022/12/12 05:25:41;;;;;;;;;23.00;21.25;;;;;3.47;60.71;100642.94;5003935;28;45584;-74
2022/12/12 05:28:06;;;;;;;;;20.75;20.00;;;;;3.50;61.10;100642.91;5000983;28;50186;-74
2022/12/12 05:30:32;;;;;;;;;26.50;22.50;;;;;3.50;60.76;100628.84;5001503;28;45412;-74
2022/12/12 05:32:57;;;;;;;;;16.50;15.75;;;;;3.50;60.99;100634.13;5001285;28;45372;-73
2022/12/12 05:35:23;;;;;;;;;26.50;23.50;;;;;3.49;61.23;100630.63;5003626;28;45478;-73
2022/12/12 05:37:48;;;;;;;;;21.75;17.50;;;;;3.53;60.70;100620.94;5009255;28;46194;-73
2022/12/12 05:40:14;;;;;;;;;33.25;27.50;;;;;3.52;60.56;100616.53;5012988;28;45452;-73
2022/12/12 05:42:39;;;;;;;;;23.00;19.50;;;;;3.56;60.76;100620.91;5001369;28;45409;-73
2022/12/12 05:45:06;;;;;;;;;12.75;11.25;;;;;3.56;60.57;100626.19;5001536;28;45492;-74
2022/12/12 05:47:32;;;;;;;;;24.50;21.00;;;;;3.57;60.44;100622.66;5001963;28;47207;-74
2022/12/12 05:49:58;;;;;;;;;30.25;20.25;;;;;3.60;61.01;100625.28;5002168;28;45827;-73
2022/12/12 05:52:23;;;;;;;;;22.25;19.00;;;;;3.59;60.56;100614.72;5012368;28;45302;-73
2022/12/12 05:54:49;;;;;;;;;21.75;18.75;;;;;3.59;60.25;100626.19;5010948;28;46717;-73
2022/12/12 05:57:16;;;;;;;;;29.75;23.00;;;;;3.57;60.66;100627.94;5006088;28;46481;-73
2022/12/12 05:59:41;;;;;;;;;22.50;19.00;;;;;3.57;60.75;100633.19;5001095;28;45331;-73
2022/12/12 06:02:07;;;;;;;;;30.25;23.25;;;;;3.57;60.80;100632.34;5000742;28;45444;-73
2022/12/12 06:04:32;;;;;;;;;22.00;20.50;;;;;3.64;60.98;100634.03;5007533;28;45325;-73
2022/12/12 06:06:57;;;;;;;;;22.75;18.00;;;;;3.64;60.82;100634.94;5012456;28;45397;-73
2022/12/12 06:09:23;;;;;;;;;25.75;18.00;;;;;3.62;60.48;100634.06;5013834;28;46717;-73
2022/12/12 06:11:48;;;;;;;;;25.75;22.75;;;;;3.64;60.39;100639.31;5000816;28;45400;-73
2022/12/12 06:14:13;;;;;;;;;26.00;21.75;;;;;3.67;60.68;100641.94;5017916;28;45563;-73
2022/12/12 06:16:39;;;;;;;;;29.25;25.75;;;;;3.66;60.23;100633.16;5013766;28;46080;-73
2022/12/12 06:19:04;;;;;;;;;21.75;19.75;;;;;3.67;60.63;100640.19;5000513;28;45373;-73
2022/12/12 06:21:30;;;;;;;;;24.75;20.00;;;;;3.68;60.33;100635.81;5015913;28;45620;-73
2022/12/12 06:23:55;;;;;;;;;25.50;21.00;;;;;3.67;60.53;100640.19;5011052;28;45844;-73
2022/12/12 06:26:21;;;;;;;;;30.00;28.25;;;;;3.62;59.95;100635.81;5000246;28;45542;-73
2022/12/12 06:28:48;;;;;;;;;24.00;22.25;;;;;3.63;60.52;100649.00;5000654;28;45387;-73
2022/12/12 06:31:13;;;;;;;;;24.50;19.50;;;;;3.64;60.65;100642.88;5013912;28;45367;-73
2022/12/12 06:33:42;;;;;;;;;29.25;23.50;;;;;3.62;60.20;100649.03;5006786;28;45429;-73
2022/12/12 06:36:22;;;;;;;;;26.75;19.25;;;;;3.52;60.16;100654.38;5005768;28;45515;-73
2022/12/12 06:38:49;;;;;;;;;27.00;22.00;;;;;3.48;60.48;100652.59;5016717;28;45355;-73
2022/12/12 06:41:15;;;;;;;;;28.00;23.50;;;;;3.47;60.60;100655.25;5011885;28;45330;-73
2022/12/12 06:43:41;;;;;;;;;28.25;24.25;;;;;3.52;60.62;100651.72;5000360;28;45624;-73
2022/12/12 06:46:11;;;;;;;;;23.50;20.25;;;;;3.59;60.13;100656.97;5010819;28;45461;-72
2022/12/12 06:48:36;;;;;;;;;29.50;23.75;;;;;3.59;60.17;100643.75;5010119;28;45864;-73
2022/12/12 06:51:07;;;;;;;;;29.25;24.75;;;;;3.61;60.77;100652.53;5012754;28;45389;-73
2022/12/12 06:53:32;;;;;;;;;27.50;22.00;;;;;3.57;60.47;100649.03;5008151;28;45357;-73
2022/12/12 06:55:57;;;;;;;;;28.75;25.25;;;;;3.52;60.40;100637.63;5016979;28;45388;-73
2022/12/12 06:58:23;;;;;;;;;27.25;22.25;;;;;3.52;60.95;100641.16;5000077;28;45355;-73
2022/12/12 07:00:52;;;;;;;;;26.50;22.00;;;;;3.55;60.48;100642.03;5003962;28;45344;-74
2022/12/12 07:03:17;;;;;;;;;25.00;19.25;;;;;3.60;60.74;100634.97;5004182;28;45631;-73
2022/12/12 07:05:44;;;;;;;;;27.25;24.00;;;;;3.62;60.89;100628.78;5007361;28;46176;-73
2022/12/12 07:08:09;;;;;;;;;28.25;20.25;;;;;3.62;60.71;100615.56;5003867;28;45620;-74
2022/12/12 07:10:35;;;;;;;;;30.25;25.00;;;;;3.56;60.08;100620.00;5006878;28;45389;-74
2022/12/12 07:13:00;;;;;;;;;28.25;23.50;;;;;3.53;60.17;100626.19;5017884;28;45602;-74
2022/12/12 07:15:26;;;;;;;;;31.50;24.75;;;;;3.53;60.84;100624.44;5009674;28;45331;-75
2022/12/12 07:17:52;;;;;;;;;22.75;21.25;;;;;3.58;60.59;100642.88;4999439;28;45305;-74
2022/12/12 07:20:19;;;;;;;;;27.50;18.75;;;;;3.57;60.34;100650.81;5008407;28;45337;-74
2022/12/12 07:22:44;;;;;;;;;30.25;25.75;;;;;3.54;60.18;100659.59;5005592;28;45606;-75
2022/12/12 07:25:09;;;;;;;;;23.00;15.00;;;;;3.50;60.44;100660.53;5001873;28;46093;-78
2022/12/12 07:27:35;;;;;;;;;24.50;19.00;;;;;3.47;60.33;100664.03;5000359;28;45400;-76
2022/12/12 07:30:00;;;;;;;;;22.75;16.25;;;;;3.45;60.24;100662.31;5012760;28;45398;-78
2022/12/12 07:32:25;;;;;;;;;32.00;28.00;;;;;3.37;60.19;100669.38;4999848;28;45511;-75
2022/12/12 07:34:51;;;;;;;;;18.50;16.00;;;;;3.26;60.24;100662.38;4999065;28;45370;-76
2022/12/12 07:37:16;;;;;;;;;29.00;22.25;;;;;3.25;60.61;100662.38;5009117;28;45329;-75
2022/12/12 07:39:42;;;;;;;;;26.25;26.00;;;;;3.33;60.90;100669.38;5005259;28;45321;-75
2022/12/12 07:42:08;;;;;;;;;30.25;26.00;;;;;3.35;60.80;100669.38;5015342;28;45542;-80
2022/12/12 07:44:33;;;;;;;;;35.50;24.75;;;;;3.38;60.99;100656.19;5005462;28;45245;-77
2022/12/12 07:46:58;;;;;;;;;26.25;22.50;;;;;3.42;60.92;100664.94;5010156;28;45411;-77
2022/12/12 07:49:24;;;;;;;;;36.50;28.00;;;;;3.40;60.56;100654.41;4999753;28;45612;-78
2022/12/12 07:51:49;;;;;;;;;22.25;21.75;;;;;3.40;61.25;100657.03;5011653;28;45451;-78
2022/12/12 07:54:15;;;;;;;;;39.00;26.50;;;;;3.38;60.57;100656.19;5017955;28;45385;-75
2022/12/12 07:56:40;;;;;;;;;27.75;26.00;;;;;3.42;60.52;100657.91;5013297;28;45344;-80
2022/12/12 07:59:06;;;;;;;;;29.50;29.00;;;;;3.46;60.18;100672.00;5004256;28;45311;-80
2022/12/12 08:01:31;;;;;;;;;37.00;28.75;;;;;3.39;61.42;100670.25;5006812;28;45598;-80
2022/12/12 08:03:57;;;;;;;;;31.00;22.25;;;;;3.38;60.80;100668.50;5004144;28;45580;-81
2022/12/12 08:06:23;;;;;;;;;30.25;23.50;;;;;3.40;60.46;100687.84;5017320;28;47185;-81
2022/12/12 08:08:50;;;;;;;;;33.75;25.75;;;;;3.33;60.19;100689.63;5012474;28;45360;-79
2022/12/12 08:11:18;;;;;;;;;33.75;28.50;;;;;3.34;61.15;100694.91;4999178;28;45449;-80
2022/12/12 08:13:43;;;;;;;;;32.75;27.75;;;;;3.38;61.35;100692.25;5005266;28;46265;-80
2022/12/12 08:16:21;;;;;;;;;35.00;29.50;;;;;3.40;60.89;100701.03;5005163;28;45488;-71
2022/12/12 08:18:47;;;;;;;;;31.00;26.00;;;;;3.38;60.75;100697.53;5001693;28;45748;-74
2022/12/12 08:21:15;;;;;;;;;30.25;25.25;;;;;3.37;60.74;100699.28;5013673;28;45383;-74
2022/12/12 08:23:41;;;;;;;;;30.75;24.25;;;;;3.37;60.42;100690.47;5013404;28;45734;-73
2022/12/12 08:26:09;;;;;;;;;35.00;30.50;;;;;3.34;60.36;100694.91;5002072;28;45546;-74
2022/12/12 08:28:35;;;;;;;;;31.75;29.00;;;;;3.31;60.92;100684.34;5004666;28;45572;-73
2022/12/12 08:31:01;;;;;;;;;30.75;23.25;;;;;3.37;60.67;100691.34;5008873;28;45433;-74
2022/12/12 08:33:26;;;;;;;;;34.50;24.00;;;;;3.38;60.55;100697.53;5015056;28;46288;-73
2022/12/12 08:35:52;;;;;;;;;28.00;27.00;;;;;3.34;60.23;100694.91;5013827;28;45385;-74
2022/12/12 08:38:17;;;;;;;;;27.25;25.75;;;;;3.31;60.04;100704.59;5019931;28;45487;-73
2022/12/12 08:40:42;;;;;;;;;30.25;29.00;;;;;3.23;60.01;100709.88;5008384;28;45404;-74
2022/12/12 08:43:09;;;;;;;;;34.25;30.25;;;;;3.28;60.42;100717.78;5007832;28;46096;-74
2022/12/12 08:45:36;;;;;;;;;31.75;29.75;;;;;3.28;60.44;100728.34;5007657;28;45380;-73
2022/12/12 08:48:02;;;;;;;;;30.75;22.25;;;;;3.29;60.43;100732.72;5017560;28;45468;-71
2022/12/12 08:50:27;;;;;;;;;33.00;26.25;;;;;3.25;60.05;100725.69;5008890;28;45597;-73
2022/12/12 08:52:53;;;;;;;;;35.00;29.25;;;;;3.26;60.82;100723.06;5011294;28;45539;-76
2022/12/12 08:55:19;;;;;;;;;34.50;27.50;;;;;3.30;60.57;100732.72;5017604;28;45656;-68
2022/12/12 08:57:44;;;;;;;;;30.50;27.25;;;;;3.29;60.55;100727.44;5017574;28;45401;-75
2022/12/12 09:00:10;;;;;;;;;32.75;24.25;;;;;3.25;60.50;100718.66;5016645;28;45588;-75
2022/12/12 09:02:35;;;;;;;;;37.75;29.75;;;;;3.26;60.15;100730.13;5023016;28;46383;-75
2022/12/12 09:05:01;;;;;;;;;38.25;31.25;;;;;3.15;59.90;100728.34;5013256;28;45475;-76
2022/12/12 09:07:26;;;;;;;;;34.50;29.75;;;;;3.16;60.36;100726.63;5004539;28;45365;-75
2022/12/12 09:09:51;;;;;;;;;30.00;23.25;;;;;3.18;60.34;100724.84;5010047;28;45482;-75
2022/12/12 09:12:17;;;;;;;;;32.25;26.00;;;;;3.12;60.37;100720.47;5010005;28;45632;-75
2022/12/12 09:14:42;;;;;;;;;36.25;31.00;;;;;3.13;60.53;100727.47;4983257;28;46190;-75
2022/12/12 09:17:07;;;;;;;;;37.00;26.25;;;;;3.04;60.53;100724.88;5012421;28;45376;-76
2022/12/12 09:19:33;;;;;;;;;32.50;26.50;;;;;3.17;60.58;100736.25;5008908;28;45684;-75
2022/12/12 09:21:58;;;;;;;;;38.25;30.50;;;;;3.17;60.42;100725.72;5015024;28;45436;-75
2022/12/12 09:24:24;;;;;;;;;36.25;26.50;;;;;3.12;60.36;100715.19;4999064;28;45605;-75
2022/12/12 09:26:49;;;;;;;;;38.00;25.75;;;;;3.06;60.87;100707.28;5009751;28;45504;-76
2022/12/12 09:29:15;;;;;;;;;35.00;27.00;;;;;3.04;60.00;100700.25;5003783;28;45633;-77
2022/12/12 09:31:40;;;;;;;;;31.00;30.00;;;;;3.07;60.28;100706.38;5002914;28;46265;-71
2022/12/12 09:34:05;;;;;;;;;33.25;29.25;;;;;3.15;60.18;100714.28;5013787;28;45401;-72
2022/12/12 09:36:31;;;;;;;;;31.25;29.00;;;;;3.10;60.07;100714.28;5002050;28;45503;-71
2022/12/12 09:38:56;;;;;;;;;29.50;28.50;;;;;2.95;60.16;100714.31;5016005;28;45649;-73
2022/12/12 09:41:25;;;;;;;;;39.50;34.25;;;;;2.93;59.91;100722.25;5005727;28;45463;-75
2022/12/12 09:44:17;;;;;;;;;30.50;23.25;;;;;2.92;60.05;100720.50;5010129;28;45866;-74
2022/12/12 09:46:52;;;;;;;;;39.50;32.50;;;;;2.84;60.15;100717.00;5012063;28;45507;-73
2022/12/12 09:49:24;;;;;;;;;35.00;28.25;;;;;2.77;60.66;100720.50;5018271;28;46112;-72
2022/12/12 09:51:50;;;;;;;;;26.00;24.50;;;;;2.80;60.87;100717.00;5009273;28;45553;-74
2022/12/12 09:54:19;;;;;;;;;41.00;34.25;;;;;2.82;60.76;100715.22;5008408;28;45396;-73
2022/12/12 09:56:53;;;;;;;;;36.00;29.25;;;;;2.86;60.99;100725.78;5003432;28;45456;-73
2022/12/12 09:59:31;;;;;;;;;45.75;34.00;;;;;2.92;60.81;100719.59;5014614;28;45371;-73
2022/12/12 10:02:08;;;;;;;;;29.75;23.75;;;;;2.95;60.71;100719.59;5018724;28;45476;-73
2022/12/12 10:04:59;;;;;;;;;37.75;31.75;;;;;2.95;60.18;100711.69;5001858;28;45981;-75
2022/12/12 10:07:53;;;;;;;;;35.75;33.25;;;;;2.96;60.05;100716.09;5007633;28;45267;-74
2022/12/12 10:10:32;;;;;;;;;46.75;32.50;;;;;2.99;60.11;100708.19;5006789;28;45581;-74
2022/12/12 10:13:01;;;;;;;;;39.50;33.25;;;;;2.91;60.55;100694.13;5012121;28;45688;-74
2022/12/12 10:15:36;;;;;;;;;31.75;26.25;;;;;2.90;60.36;100693.22;5015792;28;45353;-74
2022/12/12 10:18:11;;;;;;;;;35.25;30.75;;;;;2.82;60.12;100681.81;5005024;28;45389;-74
2022/12/12 10:20:44;;;;;;;;;40.50;32.75;;;;;2.76;60.36;100681.84;5013888;28;45415;-73
2022/12/12 10:23:22;;;;;;;;;33.50;30.25;;;;;2.76;60.02;100676.59;5010959;28;45535;-73
2022/12/12 10:26:01;;;;;;;;;47.50;40.00;;;;;2.75;60.46;100678.31;4999539;28;45262;-73
2022/12/12 10:28:30;;;;;;;;;50.75;38.00;;;;;2.70;60.01;100677.44;5023701;28;45939;-73
2022/12/12 10:31:28;;;;;;;;;41.25;36.00;;;;;2.72;60.45;100678.34;5009296;28;45556;-73
2022/12/12 10:33:57;;;;;;;;;49.00;36.00;;;;;2.67;60.05;100685.34;5018265;28;45373;-73
2022/12/12 10:36:41;;;;;;;;;49.50;37.50;;;;;2.67;60.48;100695.03;5002886;28;45421;-73
2022/12/12 10:39:19;;;;;;;;;35.25;31.25;;;;;2.69;60.48;100706.44;5006354;28;45313;-73
2022/12/12 10:41:51;;;;;;;;;36.75;34.75;;;;;2.76;60.49;100717.00;5010067;28;45380;-73
2022/12/12 10:44:58;;;;;;;;;31.75;26.25;;;;;2.77;60.41;100697.66;4999253;28;45338;-73
2022/12/12 10:47:23;;;;;;;;;39.75;38.00;;;;;2.83;60.55;100691.50;5009549;28;45940;-73
2022/12/12 10:49:57;;;;;;;;;33.50;30.00;;;;;2.84;60.54;100666.91;5012494;28;45322;-73
2022/12/12 10:52:22;;;;;;;;;45.00;34.00;;;;;2.91;60.52;100673.91;5003242;28;45517;-73
2022/12/12 10:54:54;;;;;;;;;33.00;31.00;;;;;2.96;60.45;100680.03;4999489;28;46498;-74
2022/12/12 10:57:32;;;;;;;;;43.75;31.50;;;;;3.02;60.37;100680.91;4995763;28;45524;-74
2022/12/12 10:59:59;;;;;;;;;32.75;25.25;;;;;2.92;59.65;100670.41;5007183;28;45540;-73
2022/12/12 11:02:39;;;;;;;;;38.00;34.25;;;;;2.83;59.69;100678.31;5011666;28;45546;-73
2022/12/12 11:05:06;;;;;;;;;38.75;28.75;;;;;2.66;59.48;100672.22;5003905;28;46150;-74
2022/12/12 11:07:44;;;;;;;;;35.50;30.50;;;;;2.50;59.56;100648.47;4974813;28;46626;-73
2022/12/12 11:10:29;;;;;;;;;38.50;31.00;;;;;2.49;59.88;100654.66;4983912;28;46230;-72
2022/12/12 11:13:15;;;;;;;;;37.00;32.25;;;;;2.35;59.69;100649.34;5000037;28;46049;-71
2022/12/12 11:15:45;;;;;;;;;42.50;32.75;;;;;2.30;60.05;100642.34;5011688;28;46154;-72
2022/12/12 11:18:16;;;;;;;;;43.00;36.25;;;;;2.25;60.44;100642.34;4995373;28;45888;-72
2022/12/12 11:20:51;;;;;;;;;45.25;33.75;;;;;2.21;60.13;100620.41;5011013;28;45432;-72
2022/12/12 11:23:25;;;;;;;;;34.50;27.00;;;;;2.27;60.04;100610.72;5011258;28;45645;-72
2022/12/12 11:25:56;;;;;;;;;32.75;30.50;;;;;2.27;60.44;100593.16;5006250;28;45587;-71
2022/12/12 11:28:27;;;;;;;;;39.75;34.75;;;;;2.36;60.52;100594.94;5016330;28;46245;-70
2022/12/12 11:30:55;;;;;;;;;32.50;29.50;;;;;2.43;60.38;100596.69;5004688;28;45361;-66
2022/12/12 11:33:30;;;;;;;;;41.25;33.50;;;;;2.46;60.97;100599.31;5017922;28;45827;-71
2022/12/12 11:35:56;;;;;;;;;32.50;28.25;;;;;2.47;60.33;100585.25;5005246;28;45996;-70
2022/12/12 11:38:29;;;;;;;;;41.00;34.00;;;;;2.53;60.60;100597.53;5012185;28;45424;-70
2022/12/12 11:41:12;;;;;;;;;31.50;24.75;;;;;2.55;60.80;100595.78;5000509;28;45314;-71